Barstow, California
Current Conditions -  °F | °C
As of 4:50 AM on Sunday 21 Dec 2014 (Local Time) from KDAG Reporting Station
Clear Clear  
Wind Chill: 38°   Ceiling: Unl
Heat Index: 43°   Visibility: 10mi
Dew Point: 39°   Wind: 9mph
Humidity: 86%   Direction: 250°WSW
Pressure: 30.18"   Gusts: NA
Location:  34.89°N, 117.02°W
Report Text: KDAG 211250Z AUTO 25008KT 10SM CLR 06/04 A3018 RMK AO2 SLP215 T00610039
Loading
Personal Weather Stations






























Interactive Weather Map New forecast layout! Learn more

10-Day Weather Forecast

Advertisements
Track Severe Weather on mobile